Time;durP1;ratioP1;P1;durP2;ratioP2;P2;SDS_P1;SDS_P2;PMS_P1;PMS_P2;Temp;Humidity;BMP_temperature;BMP_pressure;BME280_temperature;BME280_humidity;BME280_pressure;Samples;Min_cycle;Max_cycle;Signal;HPM_P1;HPM_P2
2023/01/24 00:01:42;;;;;;;11.45;7.90;;;;;;;;;;4703847;28;10000024;-70
2023/01/24 00:04:08;;;;;;;11.35;8.30;;;;;;;;;;5054129;28;20794;-70
2023/01/24 00:06:34;;;;;;;11.98;8.23;;;;;;;;;;5062569;28;20039;-71
2023/01/24 00:09:00;;;;;;;10.85;8.15;;;;;;;;;;5057235;28;20032;-71
2023/01/24 00:11:26;;;;;;;10.75;8.15;;;;;;;;;;5065879;28;20032;-71
2023/01/24 00:13:52;;;;;;;10.00;7.55;;;;;;;;;;5059666;28;20032;-71
2023/01/24 00:16:19;;;;;;;9.63;7.82;;;;;;;;;;5061518;28;20029;-71
2023/01/24 00:18:46;;;;;;;9.13;7.20;;;;;;;;;;5063564;28;20753;-71
2023/01/24 00:21:13;;;;;;;9.93;7.30;;;;;;;;;;5051458;28;20033;-71
2023/01/24 00:23:40;;;;;;;9.70;7.03;;;;;;;;;;5060714;28;20025;-71
2023/01/24 00:26:06;;;;;;;9.43;6.80;;;;;;;;;;5057612;28;20405;-71
2023/01/24 00:28:32;;;;;;;8.52;6.60;;;;;;;;;;5066489;28;20032;-71
2023/01/24 00:30:58;;;;;;;9.63;7.03;;;;;;;;;;5060388;28;20081;-71
2023/01/24 00:33:24;;;;;;;8.85;6.40;;;;;;;;;;5057069;28;20440;-71
2023/01/24 00:35:51;;;;;;;9.00;6.95;;;;;;;;;;5060801;28;20028;-71
2023/01/24 00:38:17;;;;;;;10.32;6.82;;;;;;;;;;5066547;28;20043;-71
2023/01/24 00:40:43;;;;;;;9.57;7.47;;;;;;;;;;5064864;28;20071;-71
2023/01/24 00:43:09;;;;;;;8.70;7.13;;;;;;;;;;5061289;28;20033;-72
2023/01/24 00:45:36;;;;;;;9.43;7.07;;;;;;;;;;5062623;28;20058;-71
2023/01/24 00:48:03;;;;;;;9.48;7.13;;;;;;;;;;5060494;28;20033;-71
2023/01/24 00:50:29;;;;;;;9.55;7.00;;;;;;;;;;5065766;28;20097;-72
2023/01/24 00:52:55;;;;;;;7.97;6.70;;;;;;;;;;5060948;28;20036;-71
2023/01/24 00:55:21;;;;;;;9.45;7.22;;;;;;;;;;5069119;28;20401;-71
2023/01/24 00:57:47;;;;;;;8.45;6.47;;;;;;;;;;5061118;28;20029;-71
2023/01/24 01:00:13;;;;;;;8.38;6.47;;;;;;;;;;5062318;28;20052;-71
2023/01/24 01:02:39;;;;;;;8.40;6.78;;;;;;;;;;5055692;28;20111;-71
2023/01/24 01:05:05;;;;;;;8.82;7.47;;;;;;;;;;5068123;28;20135;-71
2023/01/24 01:07:31;;;;;;;9.98;7.35;;;;;;;;;;5057423;28;20541;-71
2023/01/24 01:09:57;;;;;;;9.15;7.10;;;;;;;;;;5057268;28;20028;-71
2023/01/24 01:12:23;;;;;;;8.85;6.97;;;;;;;;;;5052638;28;20552;-71
2023/01/24 01:14:49;;;;;;;8.13;6.15;;;;;;;;;;5061255;28;20035;-71
2023/01/24 01:17:15;;;;;;;8.05;6.32;;;;;;;;;;5065793;28;20021;-71
2023/01/24 01:19:41;;;;;;;8.27;6.10;;;;;;;;;;5063153;28;20469;-71
2023/01/24 01:22:07;;;;;;;8.40;6.20;;;;;;;;;;5055068;28;20527;-71
2023/01/24 01:24:33;;;;;;;8.77;7.20;;;;;;;;;;5057987;28;20025;-71
2023/01/24 01:26:59;;;;;;;11.25;7.80;;;;;;;;;;5059995;28;20129;-71
2023/01/24 01:29:25;;;;;;;8.63;6.85;;;;;;;;;;5064370;28;20016;-71
2023/01/24 01:31:51;;;;;;;9.18;7.07;;;;;;;;;;5056434;28;20033;-71
2023/01/24 01:34:17;;;;;;;8.13;6.40;;;;;;;;;;5062370;28;20539;-71
2023/01/24 01:36:44;;;;;;;8.02;6.53;;;;;;;;;;5059941;28;20024;-71
2023/01/24 01:39:10;;;;;;;8.77;6.65;;;;;;;;;;5067386;28;20048;-71
2023/01/24 01:41:36;;;;;;;8.65;6.60;;;;;;;;;;5066542;28;20458;-71
2023/01/24 01:44:41;;;;;;;7.72;6.18;;;;;;;;;;5068166;28;20028;-71
2023/01/24 01:47:16;;;;;;;8.82;6.63;;;;;;;;;;5057212;28;20045;-71
2023/01/24 01:49:45;;;;;;;7.90;6.28;;;;;;;;;;5066647;28;20152;-71
2023/01/24 01:52:11;;;;;;;8.20;6.25;;;;;;;;;;5058932;28;20033;-71
2023/01/24 01:54:39;;;;;;;8.30;6.13;;;;;;;;;;5057793;28;22872;-71
2023/01/24 01:57:11;;;;;;;7.65;6.10;;;;;;;;;;5064182;28;20024;-71
2023/01/24 01:59:39;;;;;;;9.20;6.25;;;;;;;;;;5057314;28;20288;-71
2023/01/24 02:02:06;;;;;;;8.18;6.50;;;;;;;;;;5055464;28;22470;-71
2023/01/24 02:04:34;;;;;;;7.72;6.53;;;;;;;;;;5055926;28;20756;-71
2023/01/24 02:07:00;;;;;;;7.25;5.93;;;;;;;;;;5062353;28;20506;-71
2023/01/24 02:09:29;;;;;;;8.10;6.15;;;;;;;;;;5062136;28;20116;-71
2023/01/24 02:11:58;;;;;;;8.30;5.82;;;;;;;;;;5055171;28;20039;-71
2023/01/24 02:17:08;;;;;;;7.68;5.60;;;;;;;;;;5065752;28;20111;-72
2023/01/24 02:19:47;;;;;;;6.85;6.05;;;;;;;;;;5084052;28;20097;-71
2023/01/24 02:22:36;;;;;;;8.20;6.55;;;;;;;;;;5055993;28;20397;-71
2023/01/24 02:25:06;;;;;;;7.60;6.13;;;;;;;;;;5059454;28;20116;-71
2023/01/24 02:27:32;;;;;;;8.95;6.80;;;;;;;;;;5058404;28;20048;-71
2023/01/24 02:29:59;;;;;;;8.20;6.57;;;;;;;;;;5068479;28;20063;-71
2023/01/24 02:32:25;;;;;;;7.60;6.40;;;;;;;;;;5060565;28;20588;-71
2023/01/24 02:34:51;;;;;;;10.00;6.30;;;;;;;;;;5062999;28;20035;-71
2023/01/24 02:37:17;;;;;;;7.55;6.03;;;;;;;;;;5071021;28;20025;-71
2023/01/24 02:39:43;;;;;;;7.90;6.03;;;;;;;;;;5067379;28;20028;-71
2023/01/24 02:42:12;;;;;;;8.57;6.75;;;;;;;;;;5059788;28;20503;-71
2023/01/24 02:44:41;;;;;;;9.48;7.03;;;;;;;;;;5059583;28;20123;-71
2023/01/24 02:47:07;;;;;;;8.77;6.38;;;;;;;;;;5053092;28;20033;-71
2023/01/24 02:49:33;;;;;;;11.05;7.10;;;;;;;;;;5060356;28;20059;-71
2023/01/24 02:54:44;;;;;;;9.48;7.53;;;;;;;;;;5058024;28;20038;-71
2023/01/24 02:59:54;;;;;;;10.13;7.75;;;;;;;;;;5065073;28;20028;-71
2023/01/24 03:02:20;;;;;;;10.07;7.55;;;;;;;;;;5056010;28;20032;-71
2023/01/24 03:04:46;;;;;;;10.98;8.00;;;;;;;;;;5059209;28;20025;-71
2023/01/24 03:07:12;;;;;;;9.75;7.20;;;;;;;;;;5063343;28;20052;-71
2023/01/24 03:09:45;;;;;;;9.75;7.78;;;;;;;;;;5063900;28;20071;-71
2023/01/24 03:36:56;;;;;;;10.45;7.63;;;;;;;;;;5058940;28;20043;-71
2023/01/24 03:42:06;;;;;;;12.25;7.63;;;;;;;;;;5065366;28;20146;-71
2023/01/24 03:44:32;;;;;;;11.52;6.43;;;;;;;;;;5083763;28;20073;-70
2023/01/24 03:46:58;;;;;;;9.40;6.75;;;;;;;;;;5074065;28;20036;-71
2023/01/24 03:52:27;;;;;;;9.18;6.70;;;;;;;;;;5071531;28;20043;-71
2023/01/24 03:54:54;;;;;;;10.23;6.93;;;;;;;;;;5056238;28;20111;-71
2023/01/24 03:57:20;;;;;;;9.90;6.95;;;;;;;;;;5069188;28;20657;-71
2023/01/24 03:59:46;;;;;;;9.65;6.95;;;;;;;;;;5067024;28;20032;-71
2023/01/24 04:02:12;;;;;;;8.70;6.90;;;;;;;;;;5060669;28;20044;-70
2023/01/24 04:07:22;;;;;;;8.50;6.40;;;;;;;;;;5057637;28;20055;-70
2023/01/24 04:09:48;;;;;;;9.68;6.82;;;;;;;;;;5061573;28;20477;-71
2023/01/24 04:12:14;;;;;;;10.75;7.55;;;;;;;;;;5061346;28;20098;-71
2023/01/24 04:14:40;;;;;;;10.43;7.40;;;;;;;;;;5062720;28;20044;-71
2023/01/24 04:17:06;;;;;;;9.43;6.60;;;;;;;;;;5065417;28;20490;-71
2023/01/24 04:19:32;;;;;;;10.07;6.78;;;;;;;;;;5073408;28;20191;-71
2023/01/24 04:21:58;;;;;;;10.07;7.25;;;;;;;;;;5060593;28;20067;-70
2023/01/24 04:24:24;;;;;;;9.57;7.20;;;;;;;;;;5072787;28;20721;-71
2023/01/24 04:26:50;;;;;;;8.93;6.78;;;;;;;;;;5062591;28;20041;-71
2023/01/24 04:29:16;;;;;;;8.77;6.55;;;;;;;;;;5068474;28;20369;-71
2023/01/24 04:31:42;;;;;;;11.32;7.03;;;;;;;;;;5077183;28;20023;-71
2023/01/24 04:34:08;;;;;;;8.77;6.72;;;;;;;;;;5065711;28;20024;-71
2023/01/24 04:36:34;;;;;;;9.38;7.18;;;;;;;;;;5066899;28;20056;-71
2023/01/24 04:39:00;;;;;;;9.65;6.88;;;;;;;;;;5066188;28;20029;-71
2023/01/24 04:41:26;;;;;;;12.02;6.85;;;;;;;;;;5076438;28;20024;-71
2023/01/24 04:43:52;;;;;;;10.15;7.30;;;;;;;;;;5058261;28;20066;-71
2023/01/24 04:46:18;;;;;;;11.02;6.68;;;;;;;;;;5071530;28;20028;-71
2023/01/24 04:48:44;;;;;;;9.57;6.93;;;;;;;;;;5069737;28;20052;-71
2023/01/24 04:51:10;;;;;;;9.45;7.32;;;;;;;;;;5059511;28;20386;-71
2023/01/24 04:53:38;;;;;;;9.00;6.70;;;;;;;;;;5064911;28;20028;-70
2023/01/24 04:56:05;;;;;;;11.15;6.90;;;;;;;;;;5072645;28;20028;-71
2023/01/24 04:58:31;;;;;;;9.73;7.05;;;;;;;;;;5074134;28;20032;-70
2023/01/24 05:00:57;;;;;;;9.98;7.15;;;;;;;;;;5050660;28;20024;-71
2023/01/24 05:03:23;;;;;;;9.60;6.65;;;;;;;;;;5062456;28;20133;-71
2023/01/24 05:05:50;;;;;;;10.38;6.65;;;;;;;;;;5060136;28;20036;-70
2023/01/24 05:08:16;;;;;;;9.45;6.95;;;;;;;;;;5069741;28;20032;-71
2023/01/24 05:10:42;;;;;;;10.00;6.80;;;;;;;;;;5058695;28;20128;-71
2023/01/24 05:13:08;;;;;;;8.93;6.50;;;;;;;;;;5067903;28;20032;-70
2023/01/24 05:15:34;;;;;;;8.68;6.75;;;;;;;;;;5063255;28;20042;-71
2023/01/24 05:18:00;;;;;;;9.90;7.53;;;;;;;;;;5063731;28;20030;-70
2023/01/24 05:20:26;;;;;;;10.68;8.10;;;;;;;;;;5067342;28;20024;-71
2023/01/24 05:22:52;;;;;;;12.75;8.88;;;;;;;;;;5062407;28;20078;-71
2023/01/24 05:25:18;;;;;;;12.10;8.98;;;;;;;;;;5066739;28;20036;-71
2023/01/24 05:27:45;;;;;;;11.30;8.65;;;;;;;;;;5060412;28;20048;-71
2023/01/24 05:30:11;;;;;;;12.35;8.93;;;;;;;;;;5074587;28;20033;-71
2023/01/24 05:32:37;;;;;;;12.43;8.93;;;;;;;;;;5050179;28;20032;-71
2023/01/24 05:35:04;;;;;;;12.23;8.40;;;;;;;;;;5070855;28;20048;-71
2023/01/24 05:37:30;;;;;;;12.85;8.95;;;;;;;;;;5071188;28;20032;-71
2023/01/24 05:39:56;;;;;;;12.85;8.15;;;;;;;;;;5063720;28;20534;-71
2023/01/24 05:42:22;;;;;;;11.70;8.30;;;;;;;;;;5062715;28;20048;-71
2023/01/24 05:44:48;;;;;;;11.73;8.10;;;;;;;;;;5062301;28;20119;-71
2023/01/24 05:47:14;;;;;;;12.20;8.60;;;;;;;;;;5064200;28;20711;-71
2023/01/24 05:49:40;;;;;;;11.50;8.82;;;;;;;;;;5067167;28;20044;-71
2023/01/24 05:52:06;;;;;;;13.45;9.07;;;;;;;;;;5064093;28;20055;-71
2023/01/24 05:54:32;;;;;;;12.18;8.38;;;;;;;;;;5062632;28;20043;-72
2023/01/24 05:56:58;;;;;;;14.38;8.80;;;;;;;;;;5057263;28;20036;-72
2023/01/24 05:59:24;;;;;;;13.40;9.07;;;;;;;;;;5062569;28;20439;-71
2023/01/24 06:01:50;;;;;;;13.07;9.45;;;;;;;;;;5055490;28;20036;-71
2023/01/24 06:04:16;;;;;;;13.43;9.77;;;;;;;;;;5056947;28;20221;-72
2023/01/24 06:06:42;;;;;;;11.80;8.48;;;;;;;;;;5066387;28;20028;-70
2023/01/24 06:09:08;;;;;;;12.80;9.15;;;;;;;;;;5071591;28;20120;-71
2023/01/24 06:11:34;;;;;;;12.65;9.25;;;;;;;;;;5072316;28;20028;-71
2023/01/24 06:14:00;;;;;;;14.18;9.82;;;;;;;;;;5063052;28;20081;-71
2023/01/24 06:16:27;;;;;;;13.45;9.45;;;;;;;;;;5062338;28;20032;-71
2023/01/24 06:18:54;;;;;;;15.23;9.15;;;;;;;;;;5076909;28;20036;-71
2023/01/24 06:21:22;;;;;;;13.02;9.70;;;;;;;;;;5059200;28;20082;-71
2023/01/24 06:23:48;;;;;;;14.10;9.85;;;;;;;;;;5074744;28;20081;-71
2023/01/24 06:26:15;;;;;;;13.20;9.57;;;;;;;;;;5062068;28;22204;-71
2023/01/24 06:28:41;;;;;;;13.75;9.65;;;;;;;;;;5056907;28;20055;-71
2023/01/24 06:31:07;;;;;;;12.95;9.75;;;;;;;;;;5066318;28;20435;-71
2023/01/24 06:33:42;;;;;;;14.98;10.30;;;;;;;;;;5067461;28;20028;-71
2023/01/24 06:36:19;;;;;;;13.77;10.15;;;;;;;;;;5062803;28;20028;-71
2023/01/24 06:38:45;;;;;;;14.25;10.25;;;;;;;;;;5064490;28;20371;-71
2023/01/24 06:41:16;;;;;;;12.85;10.00;;;;;;;;;;5063660;28;20064;-71
2023/01/24 06:43:42;;;;;;;14.85;10.13;;;;;;;;;;5078409;28;20519;-71
2023/01/24 06:46:12;;;;;;;14.00;10.43;;;;;;;;;;5064408;28;20485;-71
2023/01/24 06:48:38;;;;;;;13.85;10.02;;;;;;;;;;5057811;28;20102;-71
2023/01/24 06:51:05;;;;;;;14.00;9.95;;;;;;;;;;5066083;28;20041;-72
2023/01/24 06:53:33;;;;;;;13.63;9.93;;;;;;;;;;5067505;28;20062;-71
2023/01/24 06:55:59;;;;;;;14.07;9.85;;;;;;;;;;5058107;28;20036;-71
2023/01/24 06:58:25;;;;;;;14.48;10.30;;;;;;;;;;5055446;28;20033;-71
2023/01/24 07:00:53;;;;;;;14.00;10.32;;;;;;;;;;5046542;28;20024;-72
2023/01/24 07:03:19;;;;;;;13.70;10.25;;;;;;;;;;5046890;28;20489;-71
2023/01/24 07:05:45;;;;;;;13.98;9.90;;;;;;;;;;5044161;28;20118;-71
2023/01/24 07:08:11;;;;;;;15.32;10.98;;;;;;;;;;5045251;28;20125;-71
2023/01/24 07:10:38;;;;;;;14.98;10.88;;;;;;;;;;5072203;28;20039;-71
2023/01/24 07:13:04;;;;;;;17.35;10.90;;;;;;;;;;5061297;28;20095;-72
2023/01/24 07:15:30;;;;;;;15.43;10.45;;;;;;;;;;5075659;28;20456;-71
2023/01/24 07:17:57;;;;;;;15.18;10.73;;;;;;;;;;5052199;28;20110;-72
2023/01/24 07:20:23;;;;;;;14.48;10.50;;;;;;;;;;5063281;28;20078;-72
2023/01/24 07:22:49;;;;;;;15.32;11.18;;;;;;;;;;5064561;28;21997;-71
2023/01/24 07:25:16;;;;;;;13.80;10.55;;;;;;;;;;5062434;28;20102;-71
2023/01/24 07:27:43;;;;;;;15.77;10.63;;;;;;;;;;5067976;28;20137;-71
2023/01/24 07:30:10;;;;;;;15.68;11.38;;;;;;;;;;5067339;28;20082;-72
2023/01/24 07:32:36;;;;;;;14.02;10.43;;;;;;;;;;5059413;28;20032;-71
2023/01/24 07:35:02;;;;;;;15.48;10.98;;;;;;;;;;5059799;28;20032;-71
2023/01/24 07:37:29;;;;;;;14.73;10.38;;;;;;;;;;5074048;28;20040;-71
2023/01/24 07:39:55;;;;;;;14.65;10.57;;;;;;;;;;5064636;28;20066;-71
2023/01/24 07:42:21;;;;;;;14.57;10.90;;;;;;;;;;5061107;28;20415;-71
2023/01/24 07:44:47;;;;;;;16.25;11.57;;;;;;;;;;5066153;28;20020;-71
2023/01/24 07:47:13;;;;;;;17.48;11.02;;;;;;;;;;5070269;28;20033;-71
2023/01/24 07:49:39;;;;;;;17.35;11.35;;;;;;;;;;5078333;28;20100;-71
2023/01/24 07:52:05;;;;;;;16.38;11.30;;;;;;;;;;5063295;28;20036;-71
2023/01/24 07:54:31;;;;;;;17.70;12.93;;;;;;;;;;5068738;28;20382;-71
2023/01/24 07:56:57;;;;;;;19.08;13.27;;;;;;;;;;5083398;28;20043;-72
2023/01/24 07:59:23;;;;;;;17.58;12.45;;;;;;;;;;5066130;28;20037;-70
2023/01/24 08:01:49;;;;;;;17.27;12.63;;;;;;;;;;5060234;28;20085;-72
2023/01/24 08:04:15;;;;;;;19.33;13.07;;;;;;;;;;5089140;28;20021;-71
2023/01/24 08:07:16;;;;;;;18.02;12.52;;;;;;;;;;5068195;28;20024;-71
2023/01/24 08:09:27;;;;;;;19.67;13.70;;;;;;;;;;5068537;28;20035;-71
2023/01/24 08:11:53;;;;;;;20.00;13.70;;;;;;;;;;5054957;28;20602;-72
2023/01/24 08:14:19;;;;;;;17.58;12.50;;;;;;;;;;5061711;28;20029;-72
2023/01/24 08:16:45;;;;;;;17.75;12.88;;;;;;;;;;5081736;28;20028;-72
2023/01/24 08:19:11;;;;;;;16.63;11.60;;;;;;;;;;5070677;28;20463;-72
2023/01/24 08:21:37;;;;;;;16.98;12.15;;;;;;;;;;5068448;28;20020;-71
2023/01/24 08:24:03;;;;;;;16.13;11.90;;;;;;;;;;5062569;28;20094;-71
2023/01/24 08:26:30;;;;;;;15.88;11.07;;;;;;;;;;5072603;28;20115;-72
2023/01/24 08:28:56;;;;;;;15.18;11.25;;;;;;;;;;5070924;28;20035;-72
2023/01/24 08:31:22;;;;;;;16.48;11.77;;;;;;;;;;5080961;28;20071;-71
2023/01/24 08:33:48;;;;;;;16.83;11.45;;;;;;;;;;5078061;28;20055;-72
2023/01/24 08:36:14;;;;;;;17.20;11.77;;;;;;;;;;5072506;28;20055;-71
2023/01/24 08:38:40;;;;;;;17.83;11.98;;;;;;;;;;5084622;28;20097;-71
2023/01/24 08:41:07;;;;;;;15.88;11.82;;;;;;;;;;5078549;28;20451;-71
2023/01/24 08:43:33;;;;;;;17.10;11.57;;;;;;;;;;5055505;28;20032;-71
2023/01/24 08:45:59;;;;;;;16.88;11.82;;;;;;;;;;5064901;28;20174;-73
2023/01/24 08:48:25;;;;;;;15.77;11.32;;;;;;;;;;5065407;28;20079;-73
2023/01/24 08:50:51;;;;;;;16.63;11.93;;;;;;;;;;5062304;28;20029;-73
2023/01/24 08:53:17;;;;;;;18.00;12.30;;;;;;;;;;5048522;28;20071;-73
2023/01/24 08:55:43;;;;;;;16.50;12.07;;;;;;;;;;5065284;28;20064;-73
2023/01/24 08:58:09;;;;;;;15.95;11.68;;;;;;;;;;5059811;28;20151;-74
2023/01/24 09:00:36;;;;;;;15.05;11.57;;;;;;;;;;5065472;28;20016;-74
2023/01/24 09:03:02;;;;;;;18.13;12.82;;;;;;;;;;5060689;28;20487;-74
2023/01/24 09:05:31;;;;;;;18.05;13.07;;;;;;;;;;5070142;28;20042;-73
2023/01/24 09:07:58;;;;;;;17.70;12.48;;;;;;;;;;5070856;28;20077;-73
2023/01/24 09:10:24;;;;;;;21.10;14.15;;;;;;;;;;5069675;28;20090;-73
2023/01/24 09:12:50;;;;;;;25.15;13.43;;;2.60;99.90;;;;;;5066165;28;20037;-73
2023/01/24 09:15:16;;;;;;;17.95;12.07;;;2.60;99.90;;;;;;5063234;28;20040;-72
2023/01/24 09:17:44;;;;;;;18.05;12.45;;;2.60;99.90;;;;;;5066585;28;20039;-72
2023/01/24 09:20:10;;;;;;;18.38;12.57;;;2.60;99.90;;;;;;5059288;28;20056;-72
2023/01/24 09:22:36;;;;;;;18.48;12.05;;;2.60;99.90;;;;;;5068671;28;20027;-72
2023/01/24 09:25:03;;;;;;;16.92;11.55;;;2.60;99.90;;;;;;5064543;28;20028;-72
2023/01/24 09:27:29;;;;;;;17.50;11.60;;;2.70;99.90;;;;;;5065369;28;20039;-72
2023/01/24 09:29:55;;;;;;;17.75;12.23;;;2.70;99.90;;;;;;5064562;28;20032;-73
2023/01/24 09:32:20;;;;;;;17.45;11.23;;;2.70;99.90;;;;;;5055259;28;20035;-72
2023/01/24 09:34:47;;;;;;;18.52;12.52;;;2.70;99.90;;;;;;5056122;28;20028;-72
2023/01/24 09:37:18;;;;;;;18.95;12.23;;;2.70;99.90;;;;;;5058084;28;20076;-73
2023/01/24 09:39:43;;;;;;;17.30;12.18;;;2.70;99.90;;;;;;5063475;28;20054;-72
2023/01/24 09:42:09;;;;;;;17.50;12.30;;;2.70;99.90;;;;;;5064252;28;20044;-72
2023/01/24 09:44:42;;;;;;;18.73;12.55;;;2.70;99.90;;;;;;5066418;28;20025;-73
2023/01/24 09:47:36;;;;;;;20.10;12.18;;;2.70;99.90;;;;;;5056367;28;20124;-70
2023/01/24 09:50:44;;;;;;;18.75;13.07;;;2.70;99.90;;;;;;5059232;28;20794;-69
2023/01/24 09:53:37;;;;;;;18.92;13.20;;;2.80;99.90;;;;;;5022609;28;20034;-68
2023/01/24 09:56:11;;;;;;;14.35;9.55;;;2.80;99.90;;;;;;5024328;28;20033;-69
2023/01/24 09:58:43;;;;;;;19.35;13.18;;;2.70;99.90;;;;;;5031504;28;20080;-67
2023/01/24 10:01:14;;;;;;;19.63;13.65;;;2.80;99.90;;;;;;5032309;28;20033;-68
2023/01/24 10:03:40;;;;;;;19.95;12.38;;;2.80;99.90;;;;;;5039281;28;20432;-69
2023/01/24 10:06:17;;;;;;;18.60;12.15;;;2.80;99.90;;;;;;5027758;28;20037;-70
2023/01/24 10:08:55;;;;;;;19.15;12.20;;;2.80;99.90;;;;;;5033982;28;20030;-69
2023/01/24 10:11:32;;;;;;;17.77;12.65;;;2.80;99.90;;;;;;5029468;28;20035;-69
2023/01/24 10:14:23;;;;;;;16.95;11.45;;;2.80;99.90;;;;;;5036533;28;20556;-69
2023/01/24 10:16:48;;;;;;;19.30;12.48;;;2.70;99.90;;;;;;5029598;28;20096;-69
2023/01/24 10:19:29;;;;;;;19.33;12.98;;;2.70;99.90;;;;;;5044249;28;20116;-69
2023/01/24 10:22:37;;;;;;;20.05;12.73;;;2.80;99.90;;;;;;5032176;28;20575;-69
2023/01/24 10:25:28;;;;;;;17.92;11.70;;;3.00;99.90;;;;;;5047831;28;20033;-70
2023/01/24 10:27:59;;;;;;;17.88;11.70;;;3.00;99.90;;;;;;5032122;28;20167;-69
2023/01/24 10:30:49;;;;;;;18.45;11.50;;;3.10;99.90;;;;;;5037046;28;20021;-68
2023/01/24 10:33:17;;;;;;;19.38;12.27;;;3.10;99.90;;;;;;5023070;28;20470;-70
2023/01/24 10:35:55;;;;;;;18.83;12.88;;;3.10;99.90;;;;;;5036913;28;20729;-70
2023/01/24 10:38:21;;;;;;;20.02;13.07;;;3.20;99.90;;;;;;5028426;28;20056;-69
2023/01/24 10:40:58;;;;;;;20.40;12.75;;;3.20;99.90;;;;;;5036611;28;20118;-70
2023/01/24 10:43:27;;;;;;;18.70;11.88;;;3.10;99.90;;;;;;5026405;28;20603;-70
2023/01/24 10:46:08;;;;;;;17.63;11.45;;;3.10;99.90;;;;;;5039180;28;20171;-69
2023/01/24 10:48:47;;;;;;;16.55;10.88;;;3.20;99.90;;;;;;5041803;28;20111;-70
2023/01/24 10:51:19;;;;;;;15.45;10.57;;;3.20;99.90;;;;;;5030019;28;20033;-69
2023/01/24 10:53:45;;;;;;;13.88;10.00;;;3.30;99.90;;;;;;5041520;28;20060;-70
2023/01/24 10:56:13;;;;;;;16.33;11.07;;;3.30;99.90;;;;;;5038387;28;20025;-70
2023/01/24 10:59:03;;;;;;;17.63;10.93;;;3.20;99.90;;;;;;5043364;28;20036;-69
2023/01/24 11:01:42;;;;;;;14.95;10.52;;;3.30;99.90;;;;;;5015185;28;20586;-69
2023/01/24 11:04:21;;;;;;;15.88;10.73;;;3.30;99.90;;;;;;5010551;28;20083;-69
2023/01/24 11:06:49;;;;;;;16.65;11.55;;;3.30;99.90;;;;;;5025186;28;20091;-69
2023/01/24 11:09:19;;;;;;;18.60;11.75;;;3.30;99.90;;;;;;5021171;28;20029;-69
2023/01/24 11:11:51;;;;;;;16.00;11.13;;;3.30;99.90;;;;;;5020075;28;20029;-69
2023/01/24 11:14:24;;;;;;;16.55;11.38;;;3.30;99.90;;;;;;5030796;28;20107;-69
2023/01/24 11:16:52;;;;;;;18.58;12.23;;;3.30;99.90;;;;;;5043294;28;20100;-69
2023/01/24 11:19:28;;;;;;;18.05;12.32;;;3.30;99.90;;;;;;5017941;28;23183;-69
2023/01/24 11:21:56;;;;;;;20.58;12.60;;;3.30;99.90;;;;;;5017031;28;20037;-69
2023/01/24 11:24:23;;;;;;;19.08;13.18;;;3.30;99.90;;;;;;5027652;28;20033;-69
2023/01/24 11:26:57;;;;;;;21.45;12.95;;;3.30;99.90;;;;;;5012976;28;20037;-69
2023/01/24 11:29:24;;;;;;;18.77;13.32;;;3.30;99.90;;;;;;5020325;28;20034;-69
2023/01/24 11:32:01;;;;;;;19.75;13.40;;;3.30;99.90;;;;;;5015964;28;20030;-69
2023/01/24 11:34:44;;;;;;;21.85;13.65;;;3.30;99.90;;;;;;5014943;28;21283;-69
2023/01/24 11:37:14;;;;;;;20.52;13.23;;;3.30;99.90;;;;;;5016640;28;20398;-69
2023/01/24 11:39:49;;;;;;;17.17;11.68;;;3.30;99.90;;;;;;5023360;28;20025;-69
2023/01/24 11:42:21;;;;;;;20.40;13.18;;;;;;;;;;5015226;28;20441;-70
2023/01/24 11:44:50;;;;;;;21.00;13.18;;;;;;;;;;5010403;28;20112;-69
2023/01/24 11:47:22;;;;;;;16.00;11.02;;;3.20;99.90;;;;;;5011199;28;20057;-69
2023/01/24 11:49:53;;;;;;;16.48;11.30;;;3.20;99.90;;;;;;5027461;28;20657;-70
2023/01/24 11:52:39;;;;;;;14.73;9.68;;;3.20;99.90;;;;;;5017960;28;20382;-70
2023/01/24 11:55:22;;;;;;;13.18;9.07;;;3.20;99.90;;;;;;5010381;28;20053;-70
2023/01/24 11:58:15;;;;;;;14.82;10.07;;;3.10;99.90;;;;;;5027347;28;20101;-70
2023/01/24 12:00:41;;;;;;;15.32;9.85;;;3.20;99.90;;;;;;5015659;28;20437;-71
2023/01/24 12:03:21;;;;;;;15.02;10.38;;;3.20;99.90;;;;;;5026859;28;20033;-71
2023/01/24 12:06:05;;;;;;;13.00;9.00;;;3.20;99.90;;;;;;5029043;28;20146;-70
2023/01/24 12:08:55;;;;;;;14.80;9.88;;;3.20;99.90;;;;;;5021685;28;20026;-71
2023/01/24 12:11:39;;;;;;;12.88;9.60;;;3.10;99.90;;;;;;5014844;28;20100;-70
2023/01/24 12:14:39;;;;;;;15.27;10.85;;;3.10;99.90;;;;;;5021597;28;20041;-71
2023/01/24 12:17:36;;;;;;;16.98;11.07;;;3.10;99.90;;;;;;5017605;28;20033;-70
2023/01/24 12:20:33;;;;;;;17.50;11.75;;;3.10;99.90;;;;;;5015054;28;20034;-69
2023/01/24 12:23:46;;;;;;;18.20;12.13;;;3.10;99.90;;;;;;5014325;28;20158;-69
2023/01/24 12:26:24;;;;;;;20.27;13.13;;;3.00;99.90;;;;;;5006160;28;20119;-69
2023/01/24 12:29:12;;;;;;;21.83;13.63;;;3.00;99.90;;;;;;5023080;28;20033;-68
2023/01/24 12:31:49;;;;;;;17.17;12.15;;;3.00;99.90;;;;;;5007565;28;20025;-69
2023/01/24 12:34:49;;;;;;;19.98;11.90;;;3.00;99.90;;;;;;5019826;28;20076;-70
2023/01/24 12:37:27;;;;;;;16.27;10.70;;;3.00;99.90;;;;;;5013133;28;20112;-69
2023/01/24 12:40:11;;;;;;;15.93;11.25;;;2.90;99.90;;;;;;5024849;28;20108;-69
2023/01/24 12:42:57;;;;;;;17.83;11.40;;;2.90;99.90;;;;;;5016695;28;20581;-70
2023/01/24 12:45:40;;;;;;;16.70;11.45;;;2.90;99.90;;;;;;5016291;28;20091;-69
2023/01/24 12:48:31;;;;;;;18.45;11.98;;;2.90;99.90;;;;;;5022814;28;20049;-68
2023/01/24 12:51:10;;;;;;;15.70;10.68;;;2.90;99.90;;;;;;5021117;28;20607;-69
2023/01/24 12:53:47;;;;;;;16.55;11.23;;;2.90;99.90;;;;;;5008183;28;20084;-69
2023/01/24 12:56:18;;;;;;;17.40;10.88;;;2.90;99.90;;;;;;5012441;28;20083;-69
2023/01/24 12:58:48;;;;;;;17.85;11.80;;;2.90;99.90;;;;;;5019135;28;20053;-69
2023/01/24 13:01:30;;;;;;;15.55;10.68;;;3.00;99.90;;;;;;5013680;28;20026;-69
2023/01/24 13:04:01;;;;;;;15.43;11.10;;;3.00;99.90;;;;;;5009845;28;20088;-70
2023/01/24 13:06:41;;;;;;;15.32;10.50;;;2.90;99.90;;;;;;5015829;28;20040;-69
2023/01/24 13:09:10;;;;;;;17.23;11.02;;;3.00;99.90;;;;;;5020534;28;20032;-70
2023/01/24 13:11:57;;;;;;;16.45;10.48;;;2.90;99.90;;;;;;5019300;28;20017;-69
2023/01/24 13:14:45;;;;;;;15.40;10.13;;;2.90;99.90;;;;;;5024638;28;20080;-69
2023/01/24 13:17:36;;;;;;;15.88;10.60;;;2.90;99.90;;;;;;5021696;28;20104;-71
2023/01/24 13:20:20;;;;;;;16.40;9.98;;;2.90;99.90;;;;;;5018012;28;20038;-72
2023/01/24 13:22:50;;;;;;;13.93;9.35;;;2.90;99.90;;;;;;4319965;28;10000880;-73
2023/01/24 13:25:46;;;;;;;12.85;8.52;;;2.90;99.90;;;;;;5012123;28;20030;-71
2023/01/24 13:28:12;;;;;;;13.75;8.95;;;2.90;99.90;;;;;;5013479;28;20512;-69
2023/01/24 13:31:06;;;;;;;12.95;8.85;;;2.90;99.90;;;;;;5014253;28;20025;-69
2023/01/24 13:33:46;;;;;;;;;;;2.90;99.90;;;;;;5010934;28;20025;-69
2023/01/24 13:36:22;;;;;;;12.95;8.50;;;2.90;99.90;;;;;;5021239;28;20748;-70
2023/01/24 13:38:48;;;;;;;11.43;7.95;;;2.90;99.90;;;;;;5013407;28;20034;-71
2023/01/24 13:41:38;;;;;;;12.38;8.45;;;2.90;99.90;;;;;;5008097;28;20176;-72
2023/01/24 13:44:06;;;;;;;12.60;7.82;;;2.90;99.90;;;;;;5028857;28;20055;-71
2023/01/24 13:46:41;;;;;;;11.32;8.02;;;2.90;99.90;;;;;;5033606;28;20421;-71
2023/01/24 13:49:29;;;;;;;10.90;7.63;;;2.90;99.90;;;;;;5021811;28;20091;-71
2023/01/24 13:52:02;;;;;;;11.15;7.95;;;2.90;99.90;;;;;;5009407;28;20056;-71
2023/01/24 13:54:34;;;;;;;;;;;2.90;99.90;;;;;;5017819;28;20164;-70
2023/01/24 13:57:25;;;;;;;11.05;8.25;;;2.90;99.90;;;;;;5012573;28;19913;-71
2023/01/24 14:00:08;;;;;;;11.80;8.32;;;2.90;99.90;;;;;;5012157;28;20041;-71
2023/01/24 14:03:00;;;;;;;12.43;8.23;;;3.00;99.90;;;;;;5011111;28;20030;-70
2023/01/24 14:05:29;;;;;;;11.68;7.80;;;3.00;99.90;;;;;;5013141;28;20044;-70
2023/01/24 14:07:56;;;;;;;11.27;7.38;;;;;;;;;;5012866;28;20751;-70
2023/01/24 14:10:35;;;;;;;10.80;7.78;;;;;;;;;;5013130;28;21276;-72
2023/01/24 14:13:01;;;;;;;11.13;8.07;;;;;;;;;;5007248;28;20038;-71
2023/01/24 14:15:41;;;;;;;10.60;7.35;;;;;;;;;;5013931;28;20029;-71
2023/01/24 14:18:26;;;;;;;11.73;8.00;;;;;;;;;;5011319;28;20026;-71
2023/01/24 14:20:52;;;;;;;10.55;7.28;;;;;;;;;;5004568;28;20022;-71
2023/01/24 14:23:24;;;;;;;10.98;8.15;;;;;;;;;;5007801;28;20429;-71
2023/01/24 14:25:52;;;;;;;11.82;8.05;;;;;;;;;;5010362;28;20064;-71
2023/01/24 14:28:41;;;;;;;10.20;7.30;;;;;;;;;;5007059;28;20104;-72
2023/01/24 14:31:18;;;;;;;10.70;7.63;;;3.20;99.90;;;;;;5010517;28;20035;-70
2023/01/24 14:33:47;;;;;;;10.35;7.43;;;;;;;;;;5008869;28;20025;-70
2023/01/24 14:36:21;;;;;;;9.57;7.13;;;3.00;99.90;;;;;;5018104;28;20076;-71
2023/01/24 14:38:46;;;;;;;12.45;7.70;;;3.00;99.90;;;;;;5022008;28;20870;-70
2023/01/24 14:41:21;;;;;;;11.38;7.85;;;3.00;99.90;;;;;;5020491;28;20013;-72
2023/01/24 14:43:48;;;;;;;11.75;7.75;;;3.00;99.90;;;;;;5009240;28;20616;-70
2023/01/24 14:46:22;;;;;;;10.00;7.30;;;3.00;99.90;;;;;;5022430;28;20030;-70
2023/01/24 14:48:47;;;;;;;10.00;7.43;;;3.00;99.90;;;;;;5014226;28;20121;-69
2023/01/24 14:51:17;;;;;;;10.95;7.78;;;2.90;99.90;;;;;;5016191;28;20022;-70